createdAt,value
2022-09-17T00:01:38.832Z,10.30
2022-09-17T00:04:06.870Z,10.30
2022-09-17T00:06:37.281Z,10.20
2022-09-17T00:09:08.877Z,10.20
2022-09-17T00:11:43.441Z,10.10
2022-09-17T00:14:18.576Z,10.20
2022-09-17T00:16:49.519Z,10.20
2022-09-17T00:19:25.962Z,10.30
2022-09-17T00:21:53.775Z,10.30
2022-09-17T00:24:22.023Z,10.20
2022-09-17T00:26:50.710Z,10.20
2022-09-17T00:29:18.473Z,10.20
2022-09-17T00:31:46.306Z,10.10
2022-09-17T00:34:14.259Z,10.20
2022-09-17T00:36:42.163Z,10.20
2022-09-17T00:39:15.818Z,10.20
2022-09-17T00:41:44.917Z,10.20
2022-09-17T00:44:54.310Z,10.20
2022-09-17T00:47:52.222Z,10.10
2022-09-17T00:50:41.730Z,10.10
2022-09-17T00:53:18.978Z,10.10
2022-09-17T00:56:23.281Z,10.00
2022-09-17T00:58:55.038Z,10.00
2022-09-17T01:01:23.740Z,10.00
2022-09-17T01:03:52.729Z,9.90
2022-09-17T01:07:10.307Z,9.90
2022-09-17T01:10:26.835Z,9.90
2022-09-17T01:13:58.396Z,9.80
2022-09-17T01:17:00.419Z,9.80
2022-09-17T01:19:49.858Z,9.70
2022-09-17T01:23:58.860Z,9.80
2022-09-17T01:27:45.961Z,9.80
2022-09-17T01:30:21.925Z,9.70
2022-09-17T01:33:23.816Z,9.70
2022-09-17T01:36:45.535Z,9.70
2022-09-17T01:39:49.168Z,9.70
2022-09-17T01:42:54.296Z,9.70
2022-09-17T01:45:49.905Z,9.80
2022-09-17T01:48:30.002Z,9.90
2022-09-17T01:51:16.366Z,9.90
2022-09-17T01:54:04.977Z,10.00
2022-09-17T01:56:48.312Z,10.10
2022-09-17T01:59:52.533Z,10.10
2022-09-17T02:02:39.084Z,10.10
2022-09-17T02:05:32.687Z,10.10
2022-09-17T02:08:26.397Z,10.10
2022-09-17T02:11:15.332Z,10.10
2022-09-17T02:13:59.987Z,10.00
2022-09-17T02:16:35.868Z,10.00
2022-09-17T02:19:11.462Z,9.90
2022-09-17T02:21:51.645Z,9.90
2022-09-17T02:24:39.524Z,9.90
2022-09-17T02:28:03.466Z,9.90
2022-09-17T02:30:32.352Z,9.80
2022-09-17T02:33:21.931Z,9.80
2022-09-17T02:35:49.604Z,9.90
2022-09-17T02:38:30.172Z,9.90
2022-09-17T02:41:31.801Z,10.00
2022-09-17T02:44:30.680Z,10.00
2022-09-17T02:48:15.749Z,10.00
2022-09-17T02:51:12.904Z,10.00
2022-09-17T02:54:26.352Z,9.90
2022-09-17T02:57:16.576Z,9.80
2022-09-17T03:00:17.689Z,9.80
2022-09-17T03:03:06.162Z,9.90
2022-09-17T03:05:39.346Z,9.90
2022-09-17T03:08:14.550Z,9.80
2022-09-17T03:10:42.191Z,9.80
2022-09-17T03:13:09.833Z,9.80
2022-09-17T03:15:37.543Z,9.80
2022-09-17T03:18:05.303Z,9.80
2022-09-17T03:20:32.894Z,9.90
2022-09-17T03:23:00.562Z,9.90
2022-09-17T03:25:28.270Z,9.90
2022-09-17T03:27:57.584Z,9.90
2022-09-17T03:30:25.200Z,9.90
2022-09-17T03:32:53.442Z,9.90
2022-09-17T03:35:21.794Z,9.90
2022-09-17T03:37:49.506Z,10.00
2022-09-17T03:40:18.884Z,10.00
2022-09-17T03:42:47.986Z,9.90
2022-09-17T03:45:16.216Z,9.90
2022-09-17T03:47:44.411Z,9.90
2022-09-17T03:50:12.164Z,9.80
2022-09-17T03:52:46.204Z,9.80
2022-09-17T03:55:18.009Z,9.80
2022-09-17T03:57:47.133Z,9.70
2022-09-17T04:00:18.041Z,9.70
2022-09-17T04:02:47.200Z,9.70
2022-09-17T04:05:16.366Z,9.70
2022-09-17T04:07:44.980Z,9.70
2022-09-17T04:10:14.334Z,9.70
2022-09-17T04:12:43.300Z,9.70
2022-09-17T04:15:12.331Z,9.70
2022-09-17T04:17:40.166Z,9.70
2022-09-17T04:20:08.628Z,9.70
2022-09-17T04:22:36.248Z,9.80
2022-09-17T04:25:04.429Z,9.80
2022-09-17T04:27:32.162Z,9.90
2022-09-17T04:30:01.691Z,9.90
2022-09-17T04:32:29.331Z,10.00
2022-09-17T04:34:57.081Z,10.00
2022-09-17T04:37:25.829Z,10.00
2022-09-17T04:39:53.703Z,10.00
2022-09-17T04:42:21.530Z,10.00
2022-09-17T04:44:49.192Z,9.90
2022-09-17T04:47:16.901Z,10.00
2022-09-17T04:49:44.902Z,10.00
2022-09-17T04:52:12.579Z,10.00
2022-09-17T04:54:40.210Z,9.90
2022-09-17T04:57:08.437Z,9.90
2022-09-17T04:59:36.133Z,9.90
2022-09-17T05:02:03.860Z,9.90
2022-09-17T05:04:31.555Z,9.80
2022-09-17T05:06:59.245Z,9.80
2022-09-17T05:09:27.150Z,9.80
2022-09-17T05:11:54.921Z,9.80
2022-09-17T05:14:22.500Z,9.90
2022-09-17T05:16:50.167Z,9.90
2022-09-17T05:19:18.825Z,9.90
2022-09-17T05:21:46.416Z,9.90
2022-09-17T05:24:14.060Z,10.00
2022-09-17T05:26:41.569Z,10.10
2022-09-17T05:29:09.341Z,10.20
2022-09-17T05:31:37.636Z,10.20
2022-09-17T05:34:07.024Z,10.30
2022-09-17T05:36:35.467Z,10.30
2022-09-17T05:39:03.556Z,10.30
2022-09-17T05:41:31.328Z,10.40
2022-09-17T05:43:58.951Z,10.40
2022-09-17T05:46:26.636Z,10.40
2022-09-17T05:48:58.114Z,10.40
2022-09-17T05:51:25.721Z,10.40
2022-09-17T05:53:56.407Z,10.40
2022-09-17T05:56:24.930Z,10.40
2022-09-17T05:58:57.509Z,10.30
2022-09-17T06:01:26.083Z,10.30
2022-09-17T06:03:54.993Z,10.30
2022-09-17T06:06:22.629Z,10.30
2022-09-17T06:08:50.257Z,10.30
2022-09-17T06:11:20.902Z,10.30
2022-09-17T06:13:49.901Z,10.20
2022-09-17T06:16:17.602Z,10.20
2022-09-17T06:18:45.411Z,10.20
2022-09-17T06:21:13.122Z,10.20
2022-09-17T06:23:43.587Z,10.30
2022-09-17T06:26:12.757Z,10.20
2022-09-17T06:28:41.965Z,10.20
2022-09-17T06:31:13.199Z,10.30
2022-09-17T06:33:41.520Z,10.30
2022-09-17T06:36:14.610Z,10.20
2022-09-17T06:38:43.290Z,10.20
2022-09-17T06:41:12.513Z,10.20
2022-09-17T06:43:40.204Z,10.20
2022-09-17T06:46:09.269Z,10.20
2022-09-17T06:48:38.999Z,10.20
2022-09-17T06:51:11.825Z,10.20
2022-09-17T06:53:40.717Z,10.20
2022-09-17T06:56:10.530Z,10.10
2022-09-17T06:58:39.707Z,10.10
2022-09-17T07:01:08.195Z,10.00
2022-09-17T07:03:36.095Z,10.10
2022-09-17T07:06:10.055Z,10.30
2022-09-17T07:08:39.589Z,10.50
2022-09-17T07:11:08.228Z,11.00
2022-09-17T07:13:36.319Z,11.60
2022-09-17T07:16:07.865Z,12.00
2022-09-17T07:18:35.653Z,12.40
2022-09-17T07:21:07.940Z,12.70
2022-09-17T07:23:38.121Z,13.50
2022-09-17T07:26:15.204Z,13.70
2022-09-17T07:28:46.757Z,13.70
2022-09-17T07:31:16.857Z,13.10
2022-09-17T07:33:45.645Z,13.10
2022-09-17T07:36:18.116Z,13.30
2022-09-17T07:38:47.262Z,13.70
2022-09-17T07:41:19.308Z,13.80
2022-09-17T07:43:47.180Z,13.40
2022-09-17T07:46:20.449Z,13.00
2022-09-17T07:48:52.380Z,12.70
2022-09-17T07:51:25.395Z,12.50
2022-09-17T07:54:00.763Z,12.20
2022-09-17T07:56:30.232Z,12.70
2022-09-17T07:59:06.045Z,13.40
2022-09-17T08:01:36.868Z,13.80
2022-09-17T08:04:06.081Z,13.50
2022-09-17T08:06:40.343Z,13.20
2022-09-17T08:09:10.801Z,13.50
2022-09-17T08:11:55.104Z,13.60
2022-09-17T08:14:28.441Z,13.80
2022-09-17T08:16:57.826Z,14.20
2022-09-17T08:19:25.622Z,14.00
2022-09-17T08:21:53.432Z,13.60
2022-09-17T08:24:21.200Z,13.30
2022-09-17T08:26:49.731Z,13.50
2022-09-17T08:29:17.579Z,13.60
2022-09-17T08:31:45.877Z,13.80
2022-09-17T08:34:14.185Z,13.80
2022-09-17T08:36:41.959Z,13.80
2022-09-17T08:39:12.281Z,13.70
2022-09-17T08:42:32.875Z,13.80
2022-09-17T08:45:14.492Z,13.90
2022-09-17T08:47:44.034Z,13.90
2022-09-17T08:50:39.360Z,13.80
2022-09-17T08:53:47.057Z,13.80
2022-09-17T08:56:19.764Z,14.20
2022-09-17T08:59:08.424Z,14.20
2022-09-17T09:02:35.158Z,14.60
2022-09-17T09:05:41.063Z,14.70
2022-09-17T09:08:45.730Z,14.80
2022-09-17T09:11:31.093Z,14.70
2022-09-17T09:14:27.980Z,14.70
2022-09-17T09:16:57.664Z,14.50
2022-09-17T09:19:47.268Z,14.60
2022-09-17T09:22:50.809Z,15.00
2022-09-17T09:25:34.085Z,15.00
2022-09-17T09:29:10.669Z,15.00
2022-09-17T09:33:05.673Z,15.20
2022-09-17T09:35:43.954Z,14.60
2022-09-17T09:39:03.294Z,14.40
2022-09-17T09:42:16.076Z,14.70
2022-09-17T09:44:43.810Z,14.80
2022-09-17T09:47:34.881Z,14.50
2022-09-17T09:51:16.670Z,14.40
2022-09-17T09:54:42.639Z,13.90
2022-09-17T09:57:22.552Z,14.10
2022-09-17T09:59:50.162Z,14.10
2022-09-17T10:02:18.050Z,14.20
2022-09-17T10:04:49.200Z,14.30
2022-09-17T10:07:19.196Z,14.40
2022-09-17T10:09:47.876Z,14.50
2022-09-17T10:12:19.232Z,14.60
2022-09-17T10:14:47.928Z,14.80
2022-09-17T10:17:29.045Z,14.70
2022-09-17T10:20:05.323Z,14.60
2022-09-17T10:22:38.753Z,14.70
2022-09-17T10:25:32.207Z,14.80
2022-09-17T10:28:21.446Z,15.00
2022-09-17T10:31:08.731Z,15.10
2022-09-17T10:34:04.681Z,14.40
2022-09-17T10:36:46.083Z,14.00
2022-09-17T10:39:48.715Z,13.50
2022-09-17T10:42:19.045Z,13.20
2022-09-17T10:45:01.025Z,13.10
2022-09-17T10:47:42.755Z,13.00
2022-09-17T10:50:31.425Z,13.10
2022-09-17T10:53:07.203Z,12.90
2022-09-17T10:56:26.878Z,12.70
2022-09-17T10:59:37.752Z,12.30
2022-09-17T11:02:30.269Z,12.00
2022-09-17T11:06:14.474Z,11.80
2022-09-17T11:09:38.447Z,11.40
2022-09-17T11:12:50.542Z,11.00
2022-09-17T11:16:20.821Z,10.70
2022-09-17T11:19:55.511Z,10.50
2022-09-17T11:22:50.611Z,10.50
2022-09-17T11:26:58.385Z,10.90
2022-09-17T11:30:09.548Z,11.20
2022-09-17T11:33:50.470Z,11.40
2022-09-17T11:36:38.548Z,11.70
2022-09-17T11:39:46.487Z,11.70
2022-09-17T11:42:52.565Z,11.70
2022-09-17T11:45:44.786Z,11.70
2022-09-17T11:48:27.120Z,11.70
2022-09-17T11:51:20.712Z,12.00
2022-09-17T11:54:19.476Z,12.30
2022-09-17T11:56:54.737Z,12.60
2022-09-17T11:59:51.592Z,13.10
2022-09-17T12:02:42.389Z,13.50
2022-09-17T12:05:31.557Z,13.90
2022-09-17T12:08:50.286Z,13.70
2022-09-17T12:11:57.662Z,13.80
2022-09-17T12:14:51.670Z,14.30
2022-09-17T12:17:48.128Z,14.60
2022-09-17T12:20:39.921Z,14.20
2022-09-17T12:23:18.736Z,14.30
2022-09-17T12:26:29.494Z,14.40
2022-09-17T12:30:05.894Z,14.10
2022-09-17T12:33:03.337Z,13.70
2022-09-17T12:36:31.912Z,13.60
2022-09-17T12:39:55.701Z,13.70
2022-09-17T12:42:42.907Z,13.80
2022-09-17T12:46:02.324Z,13.80
2022-09-17T12:49:11.340Z,13.70
2022-09-17T12:52:47.577Z,13.90
2022-09-17T12:56:05.870Z,14.00
2022-09-17T12:59:19.409Z,13.90
2022-09-17T13:02:20.662Z,14.10
2022-09-17T13:06:17.676Z,14.60
2022-09-17T13:10:21.857Z,15.00
2022-09-17T13:13:53.383Z,15.00
2022-09-17T13:17:03.868Z,15.20
2022-09-17T13:19:59.738Z,15.10
2022-09-17T13:22:45.392Z,14.90
2022-09-17T13:25:19.940Z,14.50
2022-09-17T13:27:50.781Z,14.10
2022-09-17T13:30:21.598Z,13.70
2022-09-17T13:32:53.729Z,13.00
2022-09-17T13:35:21.284Z,12.40
2022-09-17T13:38:01.043Z,12.00
2022-09-17T13:40:38.259Z,11.70
2022-09-17T13:43:12.189Z,11.60
2022-09-17T13:46:01.580Z,11.50
2022-09-17T13:48:35.885Z,11.50
2022-09-17T13:51:38.939Z,11.30
2022-09-17T13:54:11.390Z,11.30
2022-09-17T13:57:07.200Z,11.20
2022-09-17T13:59:37.528Z,11.40
2022-09-17T14:02:30.066Z,11.60
2022-09-17T14:05:36.556Z,11.90
2022-09-17T14:08:54.682Z,12.20
2022-09-17T14:11:32.567Z,12.40
2022-09-17T14:14:07.970Z,12.90
2022-09-17T14:16:50.552Z,12.90
2022-09-17T14:19:51.817Z,12.70
2022-09-17T14:22:29.194Z,12.70
2022-09-17T14:24:56.990Z,13.00
2022-09-17T14:28:03.581Z,13.20
2022-09-17T14:30:38.538Z,13.30
2022-09-17T14:33:32.357Z,13.50
2022-09-17T14:36:22.141Z,13.80
2022-09-17T14:38:56.677Z,13.90
2022-09-17T14:41:40.853Z,14.00
2022-09-17T14:44:21.009Z,14.00
2022-09-17T14:47:08.729Z,14.10
2022-09-17T14:49:40.077Z,14.20
2022-09-17T14:52:31.832Z,14.40
2022-09-17T14:55:32.307Z,14.40
2022-09-17T14:58:02.724Z,14.20
2022-09-17T15:00:39.024Z,14.00
2022-09-17T15:03:06.964Z,14.10
2022-09-17T15:05:42.636Z,14.10
2022-09-17T15:08:28.932Z,14.20
2022-09-17T15:11:09.971Z,14.30
2022-09-17T15:13:53.483Z,14.40
2022-09-17T15:16:30.922Z,14.40
2022-09-17T15:19:03.741Z,14.40
2022-09-17T15:21:46.391Z,14.20
2022-09-17T15:25:03.911Z,14.00
2022-09-17T15:27:45.451Z,13.90
2022-09-17T15:30:26.066Z,13.80
2022-09-17T15:33:02.086Z,13.70
2022-09-17T15:35:35.300Z,13.40
2022-09-17T15:38:26.730Z,13.10
2022-09-17T15:40:54.852Z,12.70
2022-09-17T15:43:34.397Z,12.50
2022-09-17T15:46:31.278Z,12.50
2022-09-17T15:49:04.313Z,12.40
2022-09-17T15:51:36.673Z,12.40
2022-09-17T15:54:08.667Z,12.20
2022-09-17T15:56:42.364Z,12.10
2022-09-17T15:59:35.215Z,12.00
2022-09-17T16:02:03.968Z,11.90
2022-09-17T16:04:35.199Z,11.80
2022-09-17T16:07:08.593Z,11.70
2022-09-17T16:09:53.710Z,11.60
2022-09-17T16:12:29.828Z,11.60
2022-09-17T16:15:02.311Z,11.60
2022-09-17T16:17:47.551Z,11.60
2022-09-17T16:20:23.812Z,11.70
2022-09-17T16:22:53.808Z,11.70
2022-09-17T16:25:31.340Z,11.70
2022-09-17T16:28:11.285Z,11.70
2022-09-17T16:30:48.513Z,11.80
2022-09-17T16:33:19.917Z,11.90
2022-09-17T16:35:47.864Z,12.00
2022-09-17T16:38:16.049Z,12.10
2022-09-17T16:40:49.875Z,12.10
2022-09-17T16:43:18.817Z,12.20
2022-09-17T16:46:07.282Z,12.20
2022-09-17T16:48:35.528Z,12.30
2022-09-17T16:51:12.612Z,12.40
2022-09-17T16:53:41.167Z,12.50
2022-09-17T16:56:13.468Z,12.50
2022-09-17T16:58:41.909Z,12.50
2022-09-17T17:01:16.518Z,12.50
2022-09-17T17:03:45.793Z,12.40
2022-09-17T17:06:19.825Z,12.40
2022-09-17T17:08:48.896Z,12.30
2022-09-17T17:11:16.978Z,12.10
2022-09-17T17:13:45.701Z,12.10
2022-09-17T17:16:16.264Z,12.10
2022-09-17T17:18:46.072Z,12.00
2022-09-17T17:21:15.424Z,12.00
2022-09-17T17:23:47.951Z,11.90
2022-09-17T17:26:17.684Z,11.80
2022-09-17T17:31:28.773Z,11.50
2022-09-17T17:33:58.136Z,11.40
2022-09-17T17:36:26.070Z,11.30
2022-09-17T17:38:59.967Z,11.20
2022-09-17T17:41:28.478Z,11.20
2022-09-17T17:43:57.801Z,11.10
2022-09-17T17:46:25.833Z,11.10
2022-09-17T17:48:53.581Z,11.10
2022-09-17T17:51:23.891Z,11.20
2022-09-17T17:53:51.713Z,11.10
2022-09-17T17:56:20.717Z,11.20
2022-09-17T17:58:48.511Z,11.20
2022-09-17T18:01:26.359Z,11.20
2022-09-17T18:04:03.728Z,11.20
2022-09-17T18:06:31.954Z,11.20
2022-09-17T18:09:01.328Z,11.10
2022-09-17T18:11:30.215Z,11.00
2022-09-17T18:14:00.995Z,10.90
2022-09-17T18:16:30.444Z,10.80
2022-09-17T18:18:58.825Z,10.90
2022-09-17T18:21:27.678Z,10.90
2022-09-17T18:23:55.458Z,10.90
2022-09-17T18:26:29.499Z,11.00
2022-09-17T18:28:57.795Z,11.00
2022-09-17T18:31:33.985Z,11.00
2022-09-17T18:34:15.063Z,11.10
2022-09-17T18:36:50.313Z,11.10
2022-09-17T18:39:57.057Z,11.10
2022-09-17T18:42:09.893Z,11.20
2022-09-17T18:44:37.519Z,11.20
2022-09-17T18:47:05.360Z,11.30
2022-09-17T18:49:33.033Z,11.20
2022-09-17T18:52:00.705Z,11.20
2022-09-17T18:54:28.349Z,11.20
2022-09-17T18:56:55.929Z,11.20
2022-09-17T18:59:23.496Z,11.30
2022-09-17T19:01:51.140Z,11.30
2022-09-17T19:04:18.760Z,11.40
2022-09-17T19:06:46.609Z,11.40
2022-09-17T19:09:14.291Z,11.50
2022-09-17T19:11:41.861Z,11.50
2022-09-17T19:14:10.852Z,11.50
2022-09-17T19:16:38.541Z,11.60
2022-09-17T19:19:06.835Z,11.70
2022-09-17T19:21:34.465Z,11.70
2022-09-17T19:24:03.492Z,11.80
2022-09-17T19:26:31.234Z,11.80
2022-09-17T19:29:03.122Z,11.90
2022-09-17T19:31:30.966Z,11.90
2022-09-17T19:33:59.702Z,11.90
2022-09-17T19:36:27.687Z,11.80
2022-09-17T19:38:59.253Z,11.80
2022-09-17T19:41:27.760Z,11.80
2022-09-17T19:43:56.981Z,11.80
2022-09-17T19:46:28.277Z,11.70
2022-09-17T19:48:58.836Z,11.60
2022-09-17T19:51:32.228Z,11.40
2022-09-17T19:54:00.053Z,11.30
2022-09-17T19:56:28.634Z,11.30
2022-09-17T19:58:56.893Z,11.20
2022-09-17T20:01:24.729Z,11.10
2022-09-17T20:03:53.414Z,11.00
2022-09-17T20:06:23.495Z,10.90
2022-09-17T20:08:55.001Z,10.90
2022-09-17T20:11:26.078Z,10.90
2022-09-17T20:14:06.702Z,10.80
2022-09-17T20:16:38.702Z,10.70
2022-09-17T20:19:08.072Z,10.60
2022-09-17T20:21:36.140Z,10.50
2022-09-17T20:24:08.055Z,10.50
2022-09-17T20:26:36.938Z,10.40
2022-09-17T20:29:04.908Z,10.40
2022-09-17T20:31:33.422Z,10.40
2022-09-17T20:34:03.898Z,10.40
2022-09-17T20:36:36.631Z,10.40
2022-09-17T20:39:15.433Z,10.40
2022-09-17T20:41:45.135Z,10.50
2022-09-17T20:44:12.817Z,10.50
2022-09-17T20:46:40.681Z,10.50
2022-09-17T20:49:08.417Z,10.40
2022-09-17T20:51:36.288Z,10.40
2022-09-17T20:54:05.245Z,10.30
2022-09-17T20:56:35.926Z,10.30
2022-09-17T20:59:25.129Z,10.20
2022-09-17T21:01:53.763Z,10.30
2022-09-17T21:04:24.093Z,10.30
2022-09-17T21:06:54.262Z,10.30
2022-09-17T21:09:22.482Z,10.30
2022-09-17T21:11:51.073Z,10.30
2022-09-17T21:14:19.548Z,10.30
2022-09-17T21:16:47.432Z,10.20
2022-09-17T21:19:20.037Z,10.10
2022-09-17T21:21:51.699Z,10.10
2022-09-17T21:24:19.356Z,10.10
2022-09-17T21:26:47.556Z,10.20
2022-09-17T21:29:15.388Z,10.10
2022-09-17T21:31:43.234Z,10.00
2022-09-17T21:34:14.309Z,10.00
2022-09-17T21:36:48.185Z,10.00
2022-09-17T21:39:18.129Z,10.00
2022-09-17T21:41:48.203Z,10.00
2022-09-17T21:44:16.430Z,10.00
2022-09-17T21:46:44.170Z,10.00
2022-09-17T21:49:13.554Z,10.00
2022-09-17T21:51:43.517Z,10.10
2022-09-17T21:54:17.113Z,10.00
2022-09-17T21:56:53.697Z,10.10
2022-09-17T21:59:24.512Z,10.10
2022-09-17T22:01:58.420Z,10.20
2022-09-17T22:04:28.756Z,10.30
2022-09-17T22:06:59.750Z,10.30
2022-09-17T22:09:32.248Z,10.30
2022-09-17T22:12:12.561Z,10.40
2022-09-17T22:14:41.361Z,10.40
2022-09-17T22:17:09.549Z,10.40
2022-09-17T22:19:38.267Z,10.40
2022-09-17T22:22:09.814Z,10.50
2022-09-17T22:24:38.641Z,10.50
2022-09-17T22:27:06.811Z,10.50
2022-09-17T22:29:38.391Z,10.50
2022-09-17T22:32:06.886Z,10.50
2022-09-17T22:34:34.716Z,10.50
2022-09-17T22:37:03.901Z,10.40
2022-09-17T22:39:34.928Z,10.40
2022-09-17T22:42:03.175Z,10.40
2022-09-17T22:44:31.745Z,10.30
2022-09-17T22:46:59.843Z,10.30
2022-09-17T22:49:27.930Z,10.30
2022-09-17T22:51:55.870Z,10.30
2022-09-17T22:54:23.829Z,10.30
2022-09-17T22:56:57.374Z,10.40
2022-09-17T22:59:25.401Z,10.40
2022-09-17T23:01:54.266Z,10.40
2022-09-17T23:04:25.146Z,10.40
2022-09-17T23:06:53.772Z,10.30
2022-09-17T23:09:22.385Z,10.30
2022-09-17T23:11:50.595Z,10.30
2022-09-17T23:14:19.797Z,10.30
2022-09-17T23:16:49.989Z,10.30
2022-09-17T23:19:19.782Z,10.30
2022-09-17T23:21:51.173Z,10.30
2022-09-17T23:24:23.060Z,10.40
2022-09-17T23:26:51.923Z,10.40
2022-09-17T23:29:19.873Z,10.40
2022-09-17T23:31:47.749Z,10.50
2022-09-17T23:34:16.232Z,10.50
2022-09-17T23:36:44.001Z,10.50
2022-09-17T23:39:13.073Z,10.50
2022-09-17T23:41:44.937Z,10.60
2022-09-17T23:44:16.095Z,10.60
2022-09-17T23:46:46.679Z,10.60
2022-09-17T23:49:15.629Z,10.70
2022-09-17T23:51:44.159Z,10.60
2022-09-17T23:54:11.961Z,10.60
2022-09-17T23:56:39.735Z,10.60
2022-09-17T23:59:08.583Z,10.60
